KNXP

Twentynine Palms Self Airport

Twentynine Palms, California, USA
METAR KNXP 181856Z 33011KT 7SM SCT100 BKN200 17/03 A3030 RMK AO2 SLP240 T01670033
Observed Flight Rules
Jan-18 @ 18:56 UTC (an hour ago) Visual Flight Rules
Wind Visibility Clouds
330° at 11 knots 7 miles
  • Scattered at 10,000' AGL
  • Broken at 20,000' AGL
Temperatures Readings
Current 17°C / 63°F
Dewpoint 3°C / 37°F
Humidity 39%
Altimeter 30.3" Hg
Pressure 1024 hPa
Elevation 626
METAR KNXP 181856Z 33011KT 7SM SCT100 BKN200 17/03 A3030 RMK AO2 SLP240 T01670033
Observed Flight Rules
Jan-18 @ 18:56 UTC
(an hour ago)
VFR
Wind Visibility
330° at 11 knots 7 miles
Clouds
  • Scattered at 10,000' AGL
  • Broken at 20,000' AGL
Temperature Dewpoint
17°C / 63°F 3°C / 37°F
Humidity Altimeter Pressure
39% 30.3" Hg 1024 hPa